Time;durP1;ratioP1;P1;durP2;ratioP2;P2;SDS_P1;SDS_P2;PMS_P1;PMS_P2;Temp;Humidity;BMP_temperature;BMP_pressure;BME280_temperature;BME280_humidity;BME280_pressure;Samples;Min_cycle;Max_cycle;Signal;HPM_P1;HPM_P2
2023/10/01 00:01:54;;;;;;;0.10;0.10;;;;;;;10.85;100.00;100035.31;5072934;28;20207;-56
2023/10/01 00:04:42;;;;;;;0.10;0.10;;;;;;;11.08;100.00;100043.88;5071580;28;20195;-55
2023/10/01 00:07:29;;;;;;;0.10;0.10;;;;;;;11.08;100.00;100050.03;5072625;28;20191;-56
2023/10/01 00:10:16;;;;;;;0.20;0.20;;;;;;;11.31;100.00;100043.56;5072828;28;20190;-56
2023/10/01 00:13:04;;;;;;;0.10;0.10;;;;;;;11.43;100.00;100050.84;5072726;28;20298;-56
2023/10/01 00:15:51;;;;;;;0.10;0.10;;;;;;;11.24;100.00;100051.91;5072684;28;20311;-55
2023/10/01 00:18:38;;;;;;;0.20;0.20;;;;;;;11.45;100.00;100045.47;5071190;28;20277;-55
2023/10/01 00:21:27;;;;;;;0.10;0.10;;;;;;;11.45;100.00;100045.47;5072612;28;20187;-56
2023/10/01 00:24:14;;;;;;;0.10;0.10;;;;;;;11.33;100.00;100044.31;5072651;28;20252;-56
2023/10/01 00:27:01;;;;;;;0.10;0.10;;;;;;;11.16;100.00;100049.63;5072595;28;20210;-56
2023/10/01 00:29:47;;;;;;;0.20;0.20;;;;;;;10.71;100.00;100039.59;5072600;28;20188;-55
2023/10/01 00:32:34;;;;;;;0.10;0.10;;;;;;;10.70;100.00;100038.72;5072470;28;20274;-56
2023/10/01 00:35:21;;;;;;;0.20;0.20;;;;;;;10.65;100.00;100034.63;5071210;28;20195;-56
2023/10/01 00:38:10;;;;;;;0.10;0.10;;;;;;;10.60;100.00;100040.13;5072103;28;20781;-56
2023/10/01 00:40:57;;;;;;;0.20;0.20;;;;;;;10.60;100.00;100042.78;5072329;28;20199;-56
2023/10/01 00:43:44;;;;;;;0.20;0.20;;;;;;;10.73;100.00;100040.41;5057253;28;20211;-56
2023/10/01 00:46:33;;;;;;;0.20;0.20;;;;;;;11.00;100.00;100032.81;5072358;28;20216;-56
2023/10/01 00:49:23;;;;;;;0.20;0.20;;;;;;;10.79;100.00;100030.31;5055740;28;20279;-55
2023/10/01 00:52:10;;;;;;;0.20;0.20;;;;;;;10.66;100.00;100031.03;5072489;28;20196;-55
2023/10/01 00:54:58;;;;;;;0.13;0.13;;;;;;;10.63;100.00;100018.81;5072266;28;20279;-56
2023/10/01 00:57:45;;;;;;;0.10;0.10;;;;;;;10.65;100.00;100016.06;5072053;28;20214;-55
2023/10/01 01:00:32;;;;;;;0.20;0.20;;;;;;;10.55;100.00;100013.88;5071926;28;20216;-55
2023/10/01 01:03:22;;;;;;;0.10;0.10;;;;;;;10.67;100.00;100012.41;5055668;28;20196;-56
2023/10/01 01:06:17;;;;;;;0.10;0.10;;;;;;;10.57;100.00;100006.72;5071010;28;20199;-56
2023/10/01 01:09:10;;;;;;;0.20;0.20;;;;;;;10.57;100.00;99997.91;5072224;28;20200;-55
2023/10/01 01:11:59;;;;;;;0.20;0.20;;;;;;;10.88;100.00;99997.19;5072127;28;20203;-56
2023/10/01 01:14:48;;;;;;;0.10;0.10;;;;;;;10.67;100.00;99985.06;5074730;28;20258;-55
2023/10/01 01:17:36;;;;;;;0.10;0.10;;;;;;;10.57;100.00;99990.81;5075597;28;20192;-56
2023/10/01 01:20:23;;;;;;;0.10;0.10;;;;;;;10.63;100.00;100000.25;5058935;28;20335;-56
2023/10/01 01:23:15;;;;;;;0.10;0.10;;;;;;;10.81;100.00;100001.13;5075554;28;20227;-56
2023/10/01 01:26:02;;;;;;;0.17;0.17;;;;;;;10.40;100.00;100012.00;5075588;28;20195;-56
2023/10/01 01:28:49;;;;;;;0.10;0.10;;;;;;;10.73;100.00;100011.25;5074518;28;20235;-55
2023/10/01 01:31:45;;;;;;;0.20;0.20;;;;;;;10.57;100.00;100012.00;5075223;28;20319;-55
2023/10/01 01:34:34;;;;;;;0.10;0.10;;;;;;;10.26;100.00;100006.53;5058852;28;20200;-55
2023/10/01 01:37:46;;;;;;;0.13;0.13;;;;;;;10.39;100.00;100004.13;5059957;28;20274;-55
2023/10/01 01:40:35;;;;;;;0.10;0.10;;;;;;;10.35;100.00;100013.16;5075105;28;20207;-56
2023/10/01 01:43:30;;;;;;;0.10;0.10;;;;;;;10.28;100.00;100010.81;5075206;28;20254;-56
2023/10/01 01:46:18;;;;;;;0.10;0.10;;;;;;;10.24;100.00;99996.03;5075207;28;20311;-55
2023/10/01 01:49:08;;;;;;;0.10;0.10;;;;;;;10.11;100.00;99999.28;5073766;28;20238;-56
2023/10/01 01:51:59;;;;;;;0.20;0.20;;;;;;;9.87;100.00;99991.63;5075130;28;20195;-56
2023/10/01 01:54:47;;;;;;;0.10;0.10;;;;;;;9.87;100.00;99991.63;5075098;28;20202;-56
2023/10/01 01:57:35;;;;;;;0.10;0.10;;;;;;;9.73;100.00;99991.38;5074942;28;20250;-56
2023/10/01 02:00:22;;;;;;;0.10;0.10;;;;;;;10.03;100.00;99989.91;5059298;28;20215;-55
2023/10/01 02:03:12;;;;;;;0.10;0.10;;;;;;;9.83;100.00;99990.03;5074298;28;20203;-56
2023/10/01 02:05:59;;;;;;;0.20;0.20;;;;;;;9.72;100.00;99992.31;5074735;28;20196;-55
2023/10/01 02:08:49;;;;;;;0.17;0.17;;;;;;;10.02;100.00;99988.22;5059432;28;20196;-55
2023/10/01 02:11:37;;;;;;;0.10;0.10;;;;;;;10.04;100.00;99989.03;5074656;28;20191;-56
2023/10/01 02:14:32;;;;;;;0.10;0.10;;;;;;;10.14;100.00;99983.28;5074406;28;20204;-56
2023/10/01 02:17:21;;;;;;;0.10;0.10;;;;;;;9.97;100.00;99984.94;5074687;28;20259;-55
2023/10/01 02:20:15;;;;;;;0.10;0.10;;;;;;;10.04;100.00;99973.13;5073194;28;20230;-55
2023/10/01 02:23:03;;;;;;;0.10;0.10;;;;;;;10.19;100.00;99976.81;5059249;28;20211;-56
2023/10/01 02:25:51;;;;;;;0.10;0.10;;;;;;;10.14;100.00;99970.91;5073140;28;20195;-55
2023/10/01 02:28:38;;;;;;;0.10;0.10;;;;;;;9.96;100.00;99964.72;5074305;28;20200;-56
2023/10/01 02:31:27;;;;;;;0.10;0.10;;;;;;;9.95;100.00;99954.19;5074223;28;20705;-56
2023/10/01 02:34:14;;;;;;;0.10;0.10;;;;;;;9.63;100.00;99945.13;5072859;28;20184;-56
2023/10/01 02:37:07;;;;;;;0.10;0.10;;;;;;;9.59;100.00;99941.81;5073819;28;20717;-55
2023/10/01 02:39:56;;;;;;;0.10;0.10;;;;;;;9.72;100.00;99948.22;5073723;28;20255;-55
2023/10/01 02:42:45;;;;;;;0.20;0.20;;;;;;;9.87;100.00;99957.22;5074000;28;20246;-55
2023/10/01 02:45:32;;;;;;;0.20;0.20;;;;;;;9.89;100.00;99949.19;5073899;28;20196;-56
2023/10/01 02:48:22;;;;;;;0.10;0.10;;;;;;;10.06;100.00;99948.38;5072580;28;20195;-56
2023/10/01 02:51:15;;;;;;;0.10;0.10;;;;;;;10.09;100.00;99962.31;5073733;28;20670;-56
2023/10/01 02:54:04;;;;;;;0.10;0.10;;;;;;;9.80;100.00;99963.72;5073835;28;20706;-56
2023/10/01 02:57:12;;;;;;;0.20;0.20;;;;;;;9.93;100.00;99964.84;5073645;28;20254;-55
2023/10/01 03:00:20;;;;;;;0.10;0.10;;;;;;;9.91;100.00;99961.41;5073510;28;20231;-56
2023/10/01 03:03:14;;;;;;;0.10;0.10;;;;;;;9.75;100.00;99955.16;5057987;28;20200;-56
2023/10/01 03:06:08;;;;;;;0.20;0.20;;;;;;;9.46;100.00;99961.81;5073560;28;20191;-56
2023/10/01 03:09:04;;;;;;;0.10;0.10;;;;;;;9.44;100.00;99974.25;5073508;28;20241;-55
2023/10/01 03:11:55;;;;;;;0.20;0.20;;;;;;;9.43;100.00;99970.75;5073506;28;20207;-56
2023/10/01 03:14:43;;;;;;;0.10;0.10;;;;;;;9.56;100.00;99972.84;5073533;28;20234;-56
2023/10/01 03:17:35;;;;;;;0.10;0.10;;;;;;;9.69;100.00;99972.16;5058067;28;20230;-55
2023/10/01 03:23:27;;;;;;;0.10;0.10;;;;;;;9.41;100.00;99977.03;5073359;28;20215;-56
2023/10/01 03:26:17;;;;;;;0.20;0.20;;;;;;;9.37;100.00;99972.81;5073215;28;20196;-56
2023/10/01 03:29:17;;;;;;;0.20;0.20;;;;;;;9.44;100.00;99968.94;5073342;28;20307;-56
2023/10/01 03:32:27;;;;;;;0.10;0.10;;;;;;;9.51;100.00;99972.19;5073096;28;20311;-56
2023/10/01 03:35:12;;;;;;;0.10;0.10;;;;;;;9.58;100.00;99960.38;5071739;28;20266;-56
2023/10/01 03:38:10;;;;;;;0.10;0.10;;;;;;;9.63;100.00;99961.88;5072511;28;20231;-55
2023/10/01 03:41:02;;;;;;;0.20;0.20;;;;;;;9.75;100.00;99966.59;5072871;28;20301;-55
2023/10/01 03:43:54;;;;;;;0.20;0.20;;;;;;;9.84;100.00;99959.97;5073092;28;20199;-56
2023/10/01 03:46:46;;;;;;;0.20;0.20;;;;;;;9.78;100.00;99959.44;5072778;28;20308;-56
2023/10/01 03:49:40;;;;;;;0.10;0.10;;;;;;;9.65;100.00;99962.69;5071765;28;20191;-56
2023/10/01 03:52:29;;;;;;;0.20;0.20;;;;;;;9.82;100.00;99964.50;5073077;28;20199;-56
2023/10/01 03:55:26;;;;;;;0.10;0.10;;;;;;;10.20;100.00;99957.34;5072822;28;20267;-55
2023/10/01 03:58:25;;;;;;;0.10;0.10;;;;;;;9.75;100.00;99961.31;5072855;28;20194;-56
2023/10/01 04:01:26;;;;;;;0.20;0.20;;;;;;;9.84;100.00;99967.06;5072508;28;20290;-56
2023/10/01 04:04:15;;;;;;;0.10;0.10;;;;;;;9.84;100.00;99962.63;5071596;28;20196;-56
2023/10/01 04:07:09;;;;;;;0.10;0.10;;;;;;;9.56;100.00;99970.19;5072679;28;20191;-56
2023/10/01 04:09:57;;;;;;;0.10;0.10;;;;;;;9.69;100.00;99966.03;5072679;28;20187;-56
2023/10/01 04:12:49;;;;;;;0.10;0.10;;;;;;;9.86;100.00;99963.44;5072750;28;20203;-56
2023/10/01 04:15:41;;;;;;;0.10;0.10;;;;;;;9.67;100.00;99967.88;5072435;28;20191;-56
2023/10/01 04:18:28;;;;;;;0.17;0.17;;;;;;;9.52;100.00;99963.31;5071409;28;20199;-56
2023/10/01 04:21:24;;;;;;;0.10;0.10;;;;;;;9.49;100.00;99974.91;5072474;28;20219;-56
2023/10/01 04:24:13;;;;;;;0.10;0.10;;;;;;;9.64;100.00;99971.50;5072408;28;20266;-56
2023/10/01 04:27:18;;;;;;;0.10;0.10;;;;;;;9.47;100.00;99974.13;5072658;28;20291;-56
2023/10/01 04:30:09;;;;;;;0.20;0.20;;;;;;;9.44;100.00;99968.94;5072697;28;20239;-56
2023/10/01 04:32:58;;;;;;;0.10;0.10;;;;;;;9.67;100.00;99967.88;5072556;28;20266;-56
2023/10/01 04:35:51;;;;;;;0.10;0.10;;;;;;;9.75;100.00;99966.59;5072586;28;20207;-55
2023/10/01 04:38:39;;;;;;;0.10;0.10;;;;;;;9.80;100.00;99970.81;5072203;28;20227;-55
2023/10/01 04:41:26;;;;;;;0.10;0.10;;;;;;;9.98;100.00;99972.56;5072205;28;20211;-56
2023/10/01 04:44:19;;;;;;;0.10;0.10;;;;;;;9.76;100.00;99970.09;5072499;28;20239;-56
2023/10/01 04:50:09;;;;;;;0.10;0.10;;;;;;;9.72;100.00;99972.00;5074066;28;20196;-55
2023/10/01 04:52:59;;;;;;;0.20;0.20;;;;;;;9.92;100.00;99973.72;5076100;28;20198;-55
2023/10/01 04:55:57;;;;;;;0.10;0.10;;;;;;;9.87;100.00;99974.88;5076062;28;20200;-56
2023/10/01 04:58:46;;;;;;;0.10;0.10;;;;;;;9.65;100.00;99972.38;5076005;28;20257;-56
2023/10/01 05:01:34;;;;;;;0.10;0.10;;;;;;;9.49;100.00;99984.63;5075845;28;20327;-56
2023/10/01 05:04:20;;;;;;;0.10;0.10;;;;;;;9.57;100.00;99980.69;5074573;28;20674;-55
2023/10/01 05:07:10;;;;;;;0.10;0.10;;;;;;;9.49;100.00;99980.19;5075906;28;20259;-56
2023/10/01 05:09:58;;;;;;;0.10;0.10;;;;;;;9.48;100.00;99977.63;5075698;28;20196;-56
2023/10/01 05:12:45;;;;;;;0.10;0.10;;;;;;;9.52;100.00;99981.81;5075827;28;20295;-56
2023/10/01 05:15:35;;;;;;;0.10;0.10;;;;;;;9.49;100.00;99976.69;5075662;28;20249;-56
2023/10/01 05:18:21;;;;;;;0.10;0.10;;;;;;;9.58;100.00;99984.19;5074443;28;20343;-56
2023/10/01 05:21:12;;;;;;;0.10;0.10;;;;;;;9.45;100.00;99983.88;5075415;28;20211;-55
2023/10/01 05:24:00;;;;;;;0.20;0.20;;;;;;;9.34;100.00;99996.75;5075599;28;20202;-56
2023/10/01 05:26:47;;;;;;;0.10;0.10;;;;;;;9.36;100.00;99998.41;5075412;28;20200;-55
2023/10/01 05:29:34;;;;;;;0.10;0.10;;;;;;;9.55;100.00;100002.81;5075415;28;20234;-55
2023/10/01 05:32:24;;;;;;;0.20;0.20;;;;;;;9.40;100.00;100010.53;5075438;28;20191;-56
2023/10/01 05:35:16;;;;;;;0.17;0.17;;;;;;;9.68;100.00;100007.50;5073845;28;20200;-56
2023/10/01 05:38:04;;;;;;;0.20;0.20;;;;;;;9.35;100.00;100009.88;5074891;28;20223;-56
2023/10/01 05:40:54;;;;;;;0.10;0.10;;;;;;;9.50;100.00;100018.06;5075094;28;20289;-56
2023/10/01 05:43:47;;;;;;;0.10;0.10;;;;;;;9.49;100.00;100011.91;5075084;28;20206;-56
2023/10/01 05:46:34;;;;;;;0.10;0.10;;;;;;;9.49;100.00;100008.41;5075240;28;20195;-55
2023/10/01 05:49:22;;;;;;;0.10;0.10;;;;;;;9.50;100.00;100007.47;5073845;28;20192;-55
2023/10/01 05:52:09;;;;;;;0.20;0.20;;;;;;;9.64;100.00;100011.19;5074991;28;20208;-56
2023/10/01 05:54:56;;;;;;;0.20;0.20;;;;;;;9.85;100.00;100008.50;5075092;28;20242;-56
2023/10/01 05:57:44;;;;;;;0.20;0.20;;;;;;;9.91;100.00;100011.69;5075033;28;20200;-56
2023/10/01 06:00:33;;;;;;;0.20;0.20;;;;;;;9.99;100.00;100004.25;5074660;28;20323;-56
2023/10/01 06:03:20;;;;;;;0.10;0.10;;;;;;;9.94;100.00;100008.91;5073290;28;20211;-56
2023/10/01 06:06:09;;;;;;;0.10;0.10;;;;;;;10.01;100.00;100012.97;5074899;28;20242;-56
2023/10/01 06:08:59;;;;;;;0.10;0.10;;;;;;;10.49;100.00;100010.69;5074795;28;20196;-56
2023/10/01 06:11:51;;;;;;;0.10;0.10;;;;;;;10.28;100.00;100023.19;5074662;28;20191;-56
2023/10/01 06:14:40;;;;;;;0.10;0.10;;;;;;;10.21;100.00;100017.28;5074709;28;20199;-56
2023/10/01 06:17:29;;;;;;;0.20;0.20;;;;;;;10.24;100.00;100011.06;5074521;28;20196;-56
2023/10/01 06:20:26;;;;;;;0.10;0.10;;;;;;;10.40;100.00;100019.06;5073150;28;20239;-56
2023/10/01 06:23:13;;;;;;;0.13;0.13;;;;;;;10.57;100.00;100017.31;5074086;28;20243;-56
2023/10/01 06:26:01;;;;;;;0.13;0.13;;;;;;;10.89;100.00;100020.97;5074459;28;20195;-56
2023/10/01 06:28:49;;;;;;;0.10;0.10;;;;;;;10.34;100.00;100014.09;5073932;28;20281;-56
2023/10/01 06:31:52;;;;;;;0.10;0.10;;;;;;;10.29;100.00;100030.19;5074180;28;20195;-56
2023/10/01 06:34:40;;;;;;;0.20;0.20;;;;;;;10.25;100.00;100018.06;5072788;28;20192;-56
2023/10/01 06:37:45;;;;;;;0.10;0.10;;;;;;;10.61;100.00;100025.94;5073831;28;20232;-56
2023/10/01 06:40:32;;;;;;;0.20;0.20;;;;;;;10.49;100.00;100029.22;5074189;28;20230;-56
2023/10/01 06:43:21;;;;;;;0.10;0.10;;;;;;;10.59;100.00;100030.47;5073779;28;20254;-56
2023/10/01 06:46:08;;;;;;;0.10;0.10;;;;;;;10.78;100.00;100038.34;5073798;28;20319;-56
2023/10/01 06:48:58;;;;;;;0.10;0.10;;;;;;;10.97;100.00;100038.28;5072724;28;20203;-55
2023/10/01 06:51:46;;;;;;;0.10;0.10;;;;;;;10.80;100.00;100039.13;5073828;28;20203;-56
2023/10/01 06:54:33;;;;;;;0.10;0.10;;;;;;;10.83;100.00;100041.66;5073329;28;20262;-56
2023/10/01 06:57:22;;;;;;;0.13;0.13;;;;;;;11.00;100.00;100036.34;5073672;28;20642;-56
2023/10/01 07:00:17;;;;;;;0.10;0.10;;;;;;;11.21;100.00;100044.97;5073664;28;20199;-56
2023/10/01 07:03:21;;;;;;;0.20;0.20;;;;;;;11.42;100.00;100051.78;5072408;28;20327;-56
2023/10/01 07:06:11;;;;;;;0.10;0.10;;;;;;;11.57;100.00;100043.94;5073613;28;20191;-56
2023/10/01 07:09:00;;;;;;;0.20;0.20;;;;;;;11.90;100.00;100046.59;5073385;28;20192;-56
2023/10/01 07:11:49;;;;;;;0.17;0.17;;;;;;;11.94;100.00;100042.81;5072872;28;20196;-56
2023/10/01 07:14:44;;;;;;;0.10;0.10;;;;;;;12.38;100.00;100048.31;5073575;28;20230;-56
2023/10/01 07:17:33;;;;;;;0.20;0.20;;;;;;;12.58;100.00;100047.16;5073252;28;20701;-57
2023/10/01 07:20:24;;;;;;;0.10;0.10;;;;;;;12.56;100.00;100044.59;5071994;28;20195;-57
2023/10/01 07:23:14;;;;;;;0.20;0.20;;;;;;;12.77;100.00;100045.13;5073130;28;20712;-57
2023/10/01 07:26:01;;;;;;;0.20;0.20;;;;;;;12.88;100.00;100037.38;5073119;28;20262;-57
2023/10/01 07:28:55;;;;;;;0.10;0.10;;;;;;;12.98;100.00;100035.03;5073323;28;20195;-57
2023/10/01 07:31:45;;;;;;;0.20;0.20;;;;;;;13.10;100.00;100034.28;5073191;28;20226;-57
2023/10/01 07:34:32;;;;;;;0.10;0.10;;;;;;;13.14;100.00;100037.63;5072085;28;20190;-57
2023/10/01 07:37:25;;;;;;;0.10;0.10;;;;;;;13.44;100.00;100029.59;5072945;28;20278;-57
2023/10/01 07:40:17;;;;;;;0.10;0.10;;;;;;;13.55;100.00;100037.78;5073063;28;20431;-57
2023/10/01 07:43:04;;;;;;;0.10;0.10;;;;;;;13.78;100.00;100039.00;5072898;28;20701;-57
2023/10/01 07:45:59;;;;;;;0.10;0.10;;;;;;;13.91;100.00;100041.75;5073123;28;20282;-57
2023/10/01 07:48:49;;;;;;;0.20;0.20;;;;;;;14.07;100.00;100039.78;5071495;28;20195;-57
2023/10/01 07:51:38;;;;;;;0.10;0.10;;;;;;;14.15;100.00;100040.16;5072850;28;20200;-57
2023/10/01 07:54:28;;;;;;;0.10;0.10;;;;;;;14.05;100.00;100039.03;5072877;28;20219;-57
2023/10/01 07:57:24;;;;;;;0.20;0.20;;;;;;;14.09;100.00;100040.59;5072898;28;20723;-57
2023/10/01 08:00:26;;;;;;;0.10;0.10;;;;;;;14.15;100.00;100036.66;5072680;28;20731;-57
2023/10/01 08:03:28;;;;;;;0.10;0.10;;;;;;;14.30;100.00;100038.31;5071095;28;20289;-57
2023/10/01 08:06:25;;;;;;;0.10;0.10;;;;;;;14.46;100.00;100043.53;5072690;28;20222;-57
2023/10/01 08:09:13;;;;;;;0.10;0.10;;;;;;;14.50;100.00;100037.91;5072507;28;20199;-57
2023/10/01 08:12:05;;;;;;;0.20;0.20;;;;;;;14.56;100.00;100037.47;5072612;28;20618;-57
2023/10/01 08:17:55;;;;;;;0.10;0.10;;;;;;;14.98;100.00;100026.72;5072379;28;20199;-58
2023/10/01 08:20:46;;;;;;;0.10;0.10;;;;;;;14.97;100.00;100025.88;5072623;28;20195;-57
2023/10/01 08:23:36;;;;;;;0.10;0.10;;;;;;;14.97;100.00;100025.00;5074551;28;20246;-57
2023/10/01 08:26:43;;;;;;;0.10;0.10;;;;;;;14.95;100.00;100024.22;5076526;28;20204;-57
2023/10/01 08:29:59;;;;;;;0.10;0.10;;;;;;;15.17;100.00;100024.50;5076476;28;20199;-57
2023/10/01 08:32:38;;;;;;;0.10;0.10;;;;;;;15.46;100.00;100025.97;5076265;28;20195;-57
2023/10/01 08:35:34;;;;;;;0.10;0.10;;;;;;;15.67;100.00;100022.78;5076167;28;20191;-57
2023/10/01 08:38:20;;;;;;;0.20;0.20;;;;;;;15.71;100.00;100019.78;5076074;28;20247;-57
2023/10/01 08:41:07;;;;;;;0.10;0.10;;;;;;;15.84;100.00;100022.44;5076456;28;20335;-57
2023/10/01 08:44:09;;;;;;;0.10;0.10;;;;;;;16.26;100.00;100033.63;5075894;28;20701;-57
2023/10/01 08:46:58;;;;;;;0.20;0.20;;;;;;;16.34;100.00;100035.75;5096003;28;20202;-57
2023/10/01 08:49:47;;;;;;;0.10;0.10;;;;;;;16.71;100.00;100023.19;5095161;28;20199;-57
2023/10/01 08:52:46;;;;;;;0.10;0.10;;;;;;;17.01;100.00;100028.88;5096454;28;20191;-57
2023/10/01 08:55:39;;;;;;;0.10;0.10;;;;;;;17.03;100.00;100026.09;5096123;28;20198;-57
2023/10/01 08:58:41;;;;;;;0.10;0.10;;;;;;;17.16;100.00;100030.38;5096265;28;20187;-57
2023/10/01 09:01:28;;;;;;;0.10;0.10;;;;;;;17.60;100.00;100017.16;5096287;28;20198;-57
2023/10/01 09:04:29;;;;;;;0.10;0.10;;;;;;;17.55;100.00;100022.00;5094370;28;20219;-57
2023/10/01 09:07:19;;;;;;;0.10;0.10;;;;;;;17.72;100.00;100024.25;5096031;28;20195;-57
2023/10/01 09:10:07;;;;;;;0.03;0.03;;;;;;;17.84;100.00;100022.41;5095938;28;20547;-57
2023/10/01 09:13:03;;;;;;;0.10;0.10;;;;;;;18.12;100.00;100016.53;5096046;28;20195;-57
2023/10/01 09:15:55;;;;;;;0.20;0.20;;;;;;;18.09;100.00;100018.59;5095865;28;20207;-57
2023/10/01 09:19:03;;;;;;;0.10;0.10;;;;;;;18.71;100.00;100016.13;5094660;28;20187;-57
2023/10/01 09:21:51;;;;;;;0.10;0.10;;;;;;;19.45;100.00;100024.97;5095902;28;20253;-59
2023/10/01 09:24:39;;;;;;;0.10;0.10;;;;;;;19.88;100.00;100021.22;5095689;28;20190;-58
2023/10/01 09:27:28;;;;;;;0.10;0.10;;;;;;;19.36;100.00;100017.69;5095530;28;20195;-58
2023/10/01 09:30:26;;;;;;;0.10;0.10;;;;;;;19.26;100.00;100014.09;5095777;28;20359;-58
2023/10/01 09:33:24;;;;;;;0.10;0.10;;;;;;;19.69;100.00;100013.94;5094411;28;20305;-58
2023/10/01 09:36:27;;;;;;;0.10;0.10;;;;;;;19.64;100.00;100018.84;5095134;28;20198;-58
2023/10/01 09:39:22;;;;;;;0.10;0.10;;;;;;;19.73;100.00;100009.13;5095648;28;20194;-57
2023/10/01 09:42:24;;;;;;;0.10;0.10;;;;;;;20.42;100.00;100008.31;5095597;28;20195;-58
2023/10/01 09:45:26;;;;;;;0.10;0.10;;;;;;;20.98;100.00;100018.41;5095460;28;20218;-57
2023/10/01 09:48:29;;;;;;;0.10;0.10;;;;;;;21.97;91.03;100016.97;5094029;28;20477;-57
2023/10/01 09:51:16;;;;;;;0.10;0.10;;;;;;;23.76;75.40;100007.78;5095344;28;20234;-57
2023/10/01 09:54:05;;;;;;;0.10;0.10;;;;;;;25.09;66.28;100009.59;5095118;28;20331;-57
2023/10/01 09:56:52;;;;;;;0.10;0.10;;;;;;;24.65;65.35;100001.78;5095279;28;20198;-57
2023/10/01 09:59:41;;;;;;;0.10;0.10;;;;;;;26.28;57.03;100000.63;5095115;28;20197;-58
2023/10/01 10:02:28;;;;;;;0.10;0.10;;;;;;;28.93;48.89;100008.97;5094901;28;20199;-58
2023/10/01 10:05:24;;;;;;;0.10;0.10;;;;;;;29.21;45.55;100003.56;5093595;28;20233;-58
2023/10/01 10:08:20;;;;;;;0.00;0.00;;;;;;;30.07;43.93;99995.09;5095134;28;20226;-58
2023/10/01 10:11:13;;;;;;;0.00;0.00;;;;;;;29.60;43.42;99993.97;5094635;28;20194;-58
2023/10/01 10:14:01;;;;;;;0.10;0.10;;;;;;;31.17;41.17;99989.19;5094930;28;20194;-58
2023/10/01 10:16:57;;;;;;;0.00;0.00;;;;;;;30.90;41.54;99990.28;5094608;28;20190;-58
2023/10/01 10:20:00;;;;;;;0.00;0.00;;;;;;;31.90;39.60;99995.44;5093565;28;20191;-58
2023/10/01 10:23:13;;;;;;;0.00;0.00;;;;;;;30.55;41.34;99987.66;5094813;28;20198;-58
2023/10/01 10:26:13;;;;;;;0.00;0.00;;;;;;;32.42;38.79;99985.28;5094689;28;20250;-58
2023/10/01 10:29:02;;;;;;;0.00;0.00;;;;;;;31.92;38.33;99978.75;5094780;28;20607;-57
2023/10/01 10:32:09;;;;;;;0.00;0.00;;;;;;;30.67;41.86;99985.19;5094630;28;20294;-58
2023/10/01 10:35:21;;;;;;;0.00;0.00;;;;;;;29.86;42.88;99980.47;5093389;28;20190;-58
2023/10/01 10:38:28;;;;;;;0.00;0.00;;;;;;;31.13;41.10;99977.00;5093958;28;20230;-58
2023/10/01 10:41:15;;;;;;;0.00;0.00;;;;;;;32.12;39.93;99976.78;5094311;28;20265;-58
2023/10/01 10:44:08;;;;;;;0.00;0.00;;;;;;;33.06;38.12;99977.88;5093944;28;20218;-57
2023/10/01 10:47:06;;;;;;;0.00;0.00;;;;;;;33.79;36.78;99974.44;5093159;28;20199;-59
2023/10/01 10:49:52;;;;;;;0.00;0.00;;;;;;;30.66;40.22;99986.22;5092795;28;20242;-56
2023/10/01 10:52:39;;;;;;;0.00;0.00;;;;;;;33.64;37.02;99979.47;5093665;28;20715;-56
2023/10/01 10:55:36;;;;;;;0.00;0.00;;;;;;;32.63;38.05;99981.38;5094127;28;20254;-56
2023/10/01 10:58:26;;;;;;;0.00;0.00;;;;;;;32.67;38.27;99979.03;5093982;28;20194;-56
2023/10/01 11:01:18;;;;;;;0.00;0.00;;;;;;;33.27;36.99;99982.97;5093980;28;20194;-56
2023/10/01 11:04:07;;;;;;;0.00;0.00;;;;;;;32.68;37.95;99992.50;5092467;28;20217;-58
2023/10/01 11:07:02;;;;;;;0.00;0.00;;;;;;;34.48;35.96;99984.16;5093611;28;20191;-58
2023/10/01 11:10:03;;;;;;;0.00;0.00;;;;;;;31.99;39.65;99979.59;5131182;27;20541;-58
2023/10/01 11:12:54;;;;;;;0.00;0.00;;;;;;;32.78;38.31;99975.56;5131204;27;20188;-59
2023/10/01 11:15:41;;;;;;;0.00;0.00;;;;;;;33.18;37.84;99962.34;5131344;27;20268;-59
2023/10/01 11:18:28;;;;;;;0.00;0.00;;;;;;;33.12;37.60;99960.53;5129836;27;20194;-59
2023/10/01 11:21:20;;;;;;;0.00;0.00;;;;;;;33.29;38.14;99958.84;5131277;27;20296;-58
2023/10/01 11:24:07;;;;;;;0.00;0.00;;;;;;;33.18;36.70;99962.34;5131107;27;20193;-58
2023/10/01 11:27:19;;;;;;;0.00;0.00;;;;;;;32.33;38.05;99955.59;5131103;27;20322;-58
2023/10/01 11:30:16;;;;;;;0.00;0.00;;;;;;;33.26;38.06;99963.97;5130856;28;20320;-58
2023/10/01 11:33:12;;;;;;;0.00;0.00;;;;;;;34.51;35.40;99953.41;5129589;27;20209;-58
2023/10/01 11:36:11;;;;;;;0.00;0.00;;;;;;;33.75;36.66;99945.72;5130693;27;20190;-58
2023/10/01 11:38:58;;;;;;;0.00;0.00;;;;;;;33.61;37.46;99944.19;5130873;28;20186;-58
2023/10/01 11:41:44;;;;;;;0.00;0.00;;;;;;;34.78;35.85;99942.81;5130773;28;20687;-58
2023/10/01 11:44:43;;;;;;;0.00;0.00;;;;;;;33.70;36.53;99938.16;5130425;27;20193;-57
2023/10/01 11:48:04;;;;;;;0.00;0.00;;;;;;;32.75;37.70;99938.41;5130699;27;20193;-58
2023/10/01 11:50:52;;;;;;;0.00;0.00;;;;;;;33.97;37.21;99935.09;5130511;27;20263;-58
2023/10/01 11:53:57;;;;;;;0.00;0.00;;;;;;;35.26;33.81;99919.75;5130499;27;20335;-58
2023/10/01 11:57:04;;;;;;;0.00;0.00;;;;;;;35.42;34.47;99909.91;5130571;27;20300;-58
2023/10/01 11:59:58;;;;;;;0.00;0.00;;;;;;;35.91;34.06;99915.97;5130337;28;20189;-58
2023/10/01 12:02:45;;;;;;;0.00;0.00;;;;;;;34.70;34.79;99916.47;5130299;27;20214;-58
2023/10/01 12:05:38;;;;;;;0.00;0.00;;;;;;;33.50;36.40;99902.69;5130197;27;20217;-57
2023/10/01 12:08:36;;;;;;;0.00;0.00;;;;;;;33.26;37.50;99904.38;5129930;27;20344;-57
2023/10/01 12:11:27;;;;;;;0.00;0.00;;;;;;;34.29;35.66;99903.53;5130194;27;20202;-57
2023/10/01 12:14:18;;;;;;;0.00;0.00;;;;;;;34.52;35.67;99891.78;5130162;27;20206;-57
2023/10/01 12:17:07;;;;;;;0.00;0.00;;;;;;;34.17;36.52;99880.69;5130034;27;20319;-59
2023/10/01 12:19:55;;;;;;;0.00;0.00;;;;;;;33.76;37.17;99881.41;5122830;27;20186;-58
2023/10/01 12:22:42;;;;;;;0.00;0.00;;;;;;;34.31;36.22;99871.13;5116427;28;20272;-58
2023/10/01 12:25:42;;;;;;;0.00;0.00;;;;;;;34.16;35.58;99873.47;5116226;28;20190;-58
2023/10/01 12:28:29;;;;;;;0.00;0.00;;;;;;;34.83;34.60;99873.25;5115912;28;20336;-57
2023/10/01 12:31:23;;;;;;;0.00;0.00;;;;;;;34.83;35.03;99878.75;5116132;28;20195;-57
2023/10/01 12:34:12;;;;;;;0.00;0.00;;;;;;;34.35;35.40;99879.72;5114717;28;20186;-58
2023/10/01 12:36:59;;;;;;;0.00;0.00;;;;;;;35.67;33.89;99884.81;5116111;28;20202;-58
2023/10/01 12:39:45;;;;;;;0.00;0.00;;;;;;;36.55;32.78;99880.72;5115922;28;20190;-58
2023/10/01 12:42:32;;;;;;;0.00;0.00;;;;;;;33.82;36.02;99875.00;5115562;28;20189;-57
2023/10/01 12:45:19;;;;;;;0.00;0.00;;;;;;;34.08;36.01;99862.81;5116048;28;20198;-57
2023/10/01 12:48:09;;;;;;;0.00;0.00;;;;;;;34.17;35.64;99869.66;5114472;28;20262;-57
2023/10/01 12:51:03;;;;;;;0.00;0.00;;;;;;;34.50;35.26;99854.56;5115821;28;20190;-57
2023/10/01 12:53:50;;;;;;;0.00;0.00;;;;;;;35.31;35.02;99856.47;5115352;28;20194;-57
2023/10/01 12:57:02;;;;;;;0.00;0.00;;;;;;;34.36;36.15;99845.66;5115763;28;20285;-57
2023/10/01 13:00:21;;;;;;;0.00;0.00;;;;;;;33.03;37.94;99850.13;5115354;28;20201;-58
2023/10/01 13:02:56;;;;;;;0.00;0.00;;;;;;;33.86;36.94;99856.94;5113963;28;20312;-57
2023/10/01 13:05:45;;;;;;;0.00;0.00;;;;;;;34.29;35.69;99843.03;5115303;28;20255;-57
2023/10/01 13:08:34;;;;;;;0.00;0.00;;;;;;;32.59;38.10;99853.06;5115216;28;20222;-58
2023/10/01 13:14:23;;;;;;;0.00;0.00;;;;;;;34.87;35.43;99841.41;5115262;28;20198;-57
2023/10/01 13:17:35;;;;;;;0.00;0.00;;;;;;;34.19;36.28;99828.16;5115295;28;20201;-58
2023/10/01 13:20:23;;;;;;;0.00;0.00;;;;;;;36.02;32.88;99826.78;5115101;28;20190;-58
2023/10/01 13:23:10;;;;;;;0.00;0.00;;;;;;;34.66;35.14;99829.09;5115162;28;20214;-57
2023/10/01 13:26:09;;;;;;;0.00;0.00;;;;;;;34.62;34.49;99819.63;5115072;28;20264;-57
2023/10/01 13:29:00;;;;;;;0.00;0.00;;;;;;;35.50;33.03;99819.41;5114758;28;20288;-57
2023/10/01 13:31:51;;;;;;;0.00;0.00;;;;;;;34.61;34.56;99820.72;5113939;28;20357;-57
2023/10/01 13:34:48;;;;;;;0.00;0.00;;;;;;;34.68;34.21;99819.50;5113762;28;20550;-57